createdAt,value
2019-02-27T00:01:03.876Z,7.90
2019-02-27T00:03:32.573Z,7.80
2019-02-27T00:06:01.619Z,7.60
2019-02-27T00:08:30.348Z,7.60
2019-02-27T00:10:59.504Z,7.60
2019-02-27T00:13:28.306Z,7.50
2019-02-27T00:15:59.497Z,7.50
2019-02-27T00:18:28.491Z,7.50
2019-02-27T00:20:57.376Z,7.50
2019-02-27T00:23:26.089Z,7.50
2019-02-27T00:25:55.162Z,7.50
2019-02-27T00:28:23.985Z,7.40
2019-02-27T00:30:53.053Z,7.40
2019-02-27T00:33:25.206Z,7.30
2019-02-27T00:35:52.452Z,7.40
2019-02-27T00:38:22.752Z,7.30
2019-02-27T00:40:51.878Z,7.50
2019-02-27T00:43:20.748Z,7.40
2019-02-27T00:45:50.077Z,7.30
2019-02-27T00:48:19.052Z,7.40
2019-02-27T00:50:47.856Z,7.30
2019-02-27T00:53:16.647Z,7.10
2019-02-27T00:55:45.796Z,7.10
2019-02-27T00:58:14.710Z,7.00
2019-02-27T01:00:43.497Z,7.40
2019-02-27T01:03:12.303Z,7.60
2019-02-27T01:05:43.188Z,7.40
2019-02-27T01:08:12.015Z,6.90
2019-02-27T01:10:42.923Z,6.80
2019-02-27T01:13:11.953Z,6.80
2019-02-27T01:15:41.783Z,6.80
2019-02-27T01:18:11.356Z,6.70
2019-02-27T01:20:40.166Z,6.60
2019-02-27T01:23:11.043Z,6.70
2019-02-27T01:25:39.804Z,6.70
2019-02-27T01:28:11.096Z,6.60
2019-02-27T01:30:39.309Z,6.50
2019-02-27T01:33:08.159Z,6.80
2019-02-27T01:35:36.961Z,6.90
2019-02-27T01:38:05.939Z,7.00
2019-02-27T01:40:34.686Z,7.10
2019-02-27T01:43:06.283Z,7.30
2019-02-27T01:45:34.766Z,7.40
2019-02-27T01:48:03.860Z,7.40
2019-02-27T01:50:38.115Z,7.50
2019-02-27T01:53:08.404Z,7.60
2019-02-27T01:55:37.662Z,7.70
2019-02-27T01:58:09.174Z,7.60
2019-02-27T02:00:37.931Z,7.40
2019-02-27T02:03:11.150Z,7.50
2019-02-27T02:05:39.652Z,7.40
2019-02-27T02:08:13.482Z,7.40
2019-02-27T02:10:40.725Z,7.50
2019-02-27T02:13:28.447Z,7.40
2019-02-27T02:16:34.166Z,7.40
2019-02-27T02:19:56.967Z,7.30
2019-02-27T02:23:22.816Z,7.30
2019-02-27T02:26:12.788Z,7.00
2019-02-27T02:29:17.895Z,6.70
2019-02-27T02:32:03.969Z,6.80
2019-02-27T02:35:03.704Z,6.90
2019-02-27T02:38:01.643Z,7.00
2019-02-27T02:40:51.870Z,7.00
2019-02-27T02:43:54.024Z,7.00
2019-02-27T02:46:59.129Z,6.70
2019-02-27T02:50:04.938Z,6.60
2019-02-27T02:53:14.174Z,6.70
2019-02-27T02:56:24.994Z,6.80
2019-02-27T02:59:34.192Z,6.80
2019-02-27T03:02:23.470Z,6.90
2019-02-27T03:05:23.608Z,7.00
2019-02-27T03:08:30.288Z,6.90
2019-02-27T03:11:42.612Z,6.70
2019-02-27T03:14:37.291Z,6.70
2019-02-27T03:17:37.030Z,6.30
2019-02-27T03:20:35.147Z,6.20
2019-02-27T03:24:02.994Z,6.10
2019-02-27T03:26:56.499Z,6.20
2019-02-27T03:29:44.657Z,6.10
2019-02-27T03:32:41.133Z,5.80
2019-02-27T03:35:48.059Z,5.60
2019-02-27T03:38:48.390Z,5.60
2019-02-27T03:41:43.422Z,5.70
2019-02-27T03:44:44.786Z,5.60
2019-02-27T03:47:51.817Z,5.70
2019-02-27T03:50:50.780Z,6.10
2019-02-27T03:53:56.985Z,6.30
2019-02-27T03:57:19.103Z,6.60
2019-02-27T04:00:19.149Z,6.50
2019-02-27T04:03:27.521Z,6.60
2019-02-27T04:06:45.316Z,6.30
2019-02-27T04:09:18.794Z,6.20
2019-02-27T04:11:44.977Z,6.10
2019-02-27T04:14:40.213Z,6.30
2019-02-27T04:17:07.494Z,6.30
2019-02-27T04:19:39.171Z,6.20
2019-02-27T04:22:07.085Z,6.30
2019-02-27T04:24:36.441Z,6.20
2019-02-27T04:27:05.187Z,6.30
2019-02-27T04:29:33.949Z,6.40
2019-02-27T04:32:03.334Z,6.20
2019-02-27T04:34:33.302Z,6.20
2019-02-27T04:37:02.741Z,6.20
2019-02-27T04:39:31.544Z,6.20
2019-02-27T04:42:00.391Z,6.30
2019-02-27T04:44:29.313Z,6.10
2019-02-27T04:46:58.196Z,6.20
2019-02-27T04:49:27.037Z,6.10
2019-02-27T04:51:55.980Z,6.20
2019-02-27T04:54:25.000Z,6.20
2019-02-27T04:56:55.077Z,6.20
2019-02-27T04:59:24.398Z,6.30
2019-02-27T05:01:54.717Z,6.30
2019-02-27T05:04:23.425Z,6.30
2019-02-27T05:06:52.498Z,6.00
2019-02-27T05:09:21.262Z,6.10
2019-02-27T05:11:50.376Z,6.10
2019-02-27T05:14:20.188Z,6.00
2019-02-27T05:16:49.177Z,6.00
2019-02-27T05:19:17.913Z,5.90
2019-02-27T05:21:46.657Z,5.80
2019-02-27T05:24:15.838Z,5.70
2019-02-27T05:26:44.545Z,5.60
2019-02-27T05:29:15.884Z,5.50
2019-02-27T05:31:45.321Z,5.40
2019-02-27T05:34:14.033Z,5.50
2019-02-27T05:36:42.879Z,5.70
2019-02-27T05:39:11.732Z,5.70
2019-02-27T05:41:40.493Z,5.80
2019-02-27T05:44:09.283Z,5.80
2019-02-27T05:46:39.053Z,5.90
2019-02-27T05:49:07.982Z,5.80
2019-02-27T05:51:36.719Z,5.70
2019-02-27T05:54:05.562Z,5.70
2019-02-27T05:56:34.290Z,5.70
2019-02-27T05:59:03.273Z,5.60
2019-02-27T06:01:32.317Z,5.60
2019-02-27T06:04:01.087Z,5.60
2019-02-27T06:06:29.869Z,5.70
2019-02-27T06:08:58.704Z,5.80
2019-02-27T06:11:29.532Z,5.70
2019-02-27T06:13:58.128Z,5.60
2019-02-27T06:16:27.011Z,5.60
2019-02-27T06:18:56.966Z,5.50
2019-02-27T06:21:25.844Z,5.50
2019-02-27T06:23:54.919Z,5.40
2019-02-27T06:26:23.748Z,5.40
2019-02-27T06:28:52.464Z,5.60
2019-02-27T06:31:21.381Z,5.50
2019-02-27T06:33:50.480Z,5.50
2019-02-27T06:36:19.176Z,5.60
2019-02-27T06:38:49.245Z,5.60
2019-02-27T06:41:18.288Z,5.70
2019-02-27T06:43:47.009Z,5.70
2019-02-27T06:46:17.327Z,5.70
2019-02-27T06:48:46.405Z,5.70
2019-02-27T06:51:15.468Z,5.70
2019-02-27T06:53:44.236Z,5.60
2019-02-27T06:56:14.245Z,6.00
2019-02-27T06:58:43.037Z,7.80
2019-02-27T07:01:13.242Z,9.50
2019-02-27T07:03:42.489Z,10.40
2019-02-27T07:06:11.472Z,10.90
2019-02-27T07:08:40.245Z,11.40
2019-02-27T07:11:10.830Z,11.60
2019-02-27T07:13:39.568Z,11.40
2019-02-27T07:16:08.443Z,11.30
2019-02-27T07:18:41.492Z,10.80
2019-02-27T07:21:07.729Z,10.60
2019-02-27T07:23:36.865Z,10.50
2019-02-27T07:26:05.669Z,10.50
2019-02-27T07:28:34.513Z,10.50
2019-02-27T07:31:03.629Z,10.40
2019-02-27T07:33:32.412Z,10.70
2019-02-27T07:36:03.612Z,11.20
2019-02-27T07:38:31.717Z,11.50
2019-02-27T07:41:00.451Z,11.60
2019-02-27T07:43:29.175Z,11.70
2019-02-27T07:45:58.204Z,11.90
2019-02-27T07:48:28.093Z,12.20
2019-02-27T07:50:56.811Z,12.90
2019-02-27T07:53:25.893Z,13.30
2019-02-27T07:55:56.110Z,14.60
2019-02-27T07:58:24.879Z,15.40
2019-02-27T08:00:53.833Z,16.10
2019-02-27T08:03:22.552Z,16.90
2019-02-27T08:05:51.344Z,17.70
2019-02-27T08:08:23.409Z,18.50
2019-02-27T08:10:50.659Z,18.30
2019-02-27T08:13:19.644Z,18.80
2019-02-27T08:15:49.091Z,19.80
2019-02-27T08:18:23.023Z,20.60
2019-02-27T08:20:48.660Z,21.00
2019-02-27T08:23:17.626Z,20.40
2019-02-27T08:25:46.452Z,21.20
2019-02-27T08:28:15.247Z,21.40
2019-02-27T08:30:47.002Z,21.90
2019-02-27T08:33:15.824Z,21.90
2019-02-27T08:35:44.664Z,23.00
2019-02-27T08:38:13.468Z,23.20
2019-02-27T08:46:08.513Z,23.80
2019-02-27T08:48:37.677Z,23.60
2019-02-27T08:51:08.743Z,22.90
2019-02-27T08:53:38.045Z,22.90
2019-02-27T09:10:30.462Z,22.80
2019-02-27T09:15:28.208Z,23.20
2019-02-27T09:17:59.202Z,22.90
2019-02-27T09:20:27.642Z,23.30
2019-02-27T09:28:22.825Z,23.60
2019-02-27T09:30:51.596Z,24.20
2019-02-27T09:33:21.017Z,24.70
2019-02-27T09:35:49.779Z,25.50
2019-02-27T09:38:18.521Z,26.10
2019-02-27T09:40:47.476Z,27.00
2019-02-27T09:43:16.425Z,25.50
2019-02-27T09:45:46.509Z,25.20
2019-02-27T09:48:15.880Z,26.10
2019-02-27T09:50:48.253Z,25.50
2019-02-27T09:53:17.180Z,25.90
2019-02-27T09:55:45.900Z,27.40
2019-02-27T09:58:14.945Z,26.70
2019-02-27T10:00:49.421Z,26.30
2019-02-27T10:03:21.141Z,28.00
2019-02-27T10:05:49.033Z,27.90
2019-02-27T10:08:18.211Z,28.10
2019-02-27T10:10:47.148Z,27.80
2019-02-27T10:13:16.084Z,29.00
2019-02-27T10:15:44.993Z,29.60
2019-02-27T10:18:18.084Z,30.20
2019-02-27T10:20:44.515Z,30.50
2019-02-27T10:23:13.325Z,30.80
2019-02-27T10:25:43.515Z,30.70
2019-02-27T10:28:12.768Z,30.50
2019-02-27T10:30:41.571Z,30.70
2019-02-27T10:33:11.030Z,31.00
2019-02-27T10:35:41.350Z,31.40
2019-02-27T10:38:10.252Z,31.10
2019-02-27T10:40:39.157Z,31.40
2019-02-27T10:43:08.094Z,31.90
2019-02-27T10:45:37.072Z,31.40
2019-02-27T10:48:06.287Z,32.20
2019-02-27T10:50:36.104Z,32.20
2019-02-27T10:53:05.217Z,33.00
2019-02-27T10:55:34.129Z,33.70
2019-02-27T10:58:02.896Z,32.70
2019-02-27T11:00:31.701Z,32.50
2019-02-27T11:03:00.773Z,32.20
2019-02-27T11:05:32.036Z,32.10
2019-02-27T11:08:00.977Z,31.80
2019-02-27T11:10:29.899Z,31.90
2019-02-27T11:12:58.787Z,32.00
2019-02-27T11:15:27.969Z,32.20
2019-02-27T11:17:56.700Z,32.40
2019-02-27T11:20:26.152Z,32.70
2019-02-27T11:22:55.495Z,33.50
2019-02-27T11:25:25.157Z,32.70
2019-02-27T11:27:53.942Z,32.60
2019-02-27T11:30:29.065Z,32.50
2019-02-27T11:32:58.275Z,33.00
2019-02-27T11:35:30.214Z,32.80
2019-02-27T11:37:59.309Z,33.10
2019-02-27T11:40:29.719Z,33.30
2019-02-27T11:42:58.517Z,33.70
2019-02-27T11:45:27.818Z,33.50
2019-02-27T11:47:57.037Z,33.70
2019-02-27T14:04:48.109Z,24.00
2019-02-27T14:07:18.631Z,24.00
2019-02-27T14:09:48.727Z,23.80
2019-02-27T14:12:18.257Z,23.70
2019-02-27T14:14:50.220Z,23.60
2019-02-27T14:17:20.141Z,23.60
2019-02-27T14:19:49.451Z,23.70
2019-02-27T14:22:19.080Z,23.70
2019-02-27T14:24:48.361Z,23.50
2019-02-27T14:27:17.794Z,23.40
2019-02-27T14:29:47.251Z,23.50
2019-02-27T14:32:16.880Z,23.60
2019-02-27T14:34:46.401Z,23.40
2019-02-27T14:37:16.530Z,23.40
2019-02-27T14:39:46.854Z,23.40
2019-02-27T14:42:16.505Z,23.40
2019-02-27T14:44:48.586Z,23.30
2019-02-27T14:47:17.879Z,23.20
2019-02-27T14:49:47.343Z,23.20
2019-02-27T14:52:17.120Z,23.30
2019-02-27T14:54:46.426Z,23.20
2019-02-27T15:10:42.437Z,22.80
2019-02-27T15:13:12.804Z,22.70
2019-02-27T15:15:43.719Z,22.70
2019-02-27T15:18:14.000Z,22.70
2019-02-27T15:20:42.920Z,22.60
2019-02-27T15:23:12.061Z,22.50
2019-02-27T15:25:43.169Z,22.20
2019-02-27T15:28:11.340Z,22.40
2019-02-27T15:30:40.257Z,22.40
2019-02-27T15:33:09.000Z,22.40
2019-02-27T15:35:38.044Z,22.20
2019-02-27T15:38:11.231Z,22.10
2019-02-27T15:40:38.443Z,22.00
2019-02-27T15:43:11.215Z,22.00
2019-02-27T15:45:47.473Z,22.10
2019-02-27T15:48:08.624Z,22.10
2019-02-27T15:50:37.504Z,22.00
2019-02-27T15:53:06.369Z,21.90
2019-02-27T15:55:37.235Z,21.90
2019-02-27T15:58:05.930Z,21.80
2019-02-27T16:00:34.813Z,21.80
2019-02-27T16:03:03.720Z,21.70
2019-02-27T16:05:32.537Z,21.60
2019-02-27T16:08:01.696Z,21.60
2019-02-27T16:10:30.706Z,21.60
2019-02-27T16:13:01.230Z,21.50
2019-02-27T16:15:30.207Z,21.30
2019-02-27T16:17:59.410Z,21.30
2019-02-27T16:20:28.466Z,21.00
2019-02-27T16:22:57.473Z,21.00
2019-02-27T16:30:45.231Z,21.00
2019-02-27T16:33:14.539Z,20.90
2019-02-27T16:35:46.330Z,20.90
2019-02-27T16:38:15.400Z,20.70
2019-02-27T16:40:44.703Z,20.60
2019-02-27T16:43:14.457Z,20.30
2019-02-27T16:45:43.360Z,20.30
2019-02-27T16:48:12.594Z,20.30
2019-02-27T16:50:41.360Z,20.30
2019-02-27T16:55:52.808Z,20.10
2019-02-27T16:58:22.397Z,20.10
2019-02-27T17:00:55.428Z,19.90
2019-02-27T17:03:23.185Z,19.70
2019-02-27T17:05:52.807Z,19.60
2019-02-27T17:08:28.370Z,19.50
2019-02-27T17:10:59.690Z,19.50
2019-02-27T17:13:29.413Z,19.50
2019-02-27T17:16:00.168Z,19.30
2019-02-27T17:18:29.578Z,19.10
2019-02-27T17:20:58.814Z,19.00
2019-02-27T17:23:28.853Z,18.90
2019-02-27T17:26:03.391Z,18.70
2019-02-27T17:28:29.471Z,18.70
2019-02-27T17:30:59.056Z,18.60
2019-02-27T17:33:28.815Z,18.50
2019-02-27T17:38:41.000Z,18.30
2019-02-27T17:41:10.692Z,18.10
2019-02-27T17:43:40.791Z,18.00
2019-02-27T17:46:10.555Z,18.00
2019-02-27T17:48:43.270Z,17.80
2019-02-27T17:51:11.975Z,17.60
2019-02-27T17:53:40.717Z,17.50
2019-02-27T17:56:09.443Z,17.50
2019-02-27T17:58:38.542Z,17.40
2019-02-27T18:01:10.596Z,17.30
2019-02-27T18:03:41.827Z,17.30
2019-02-27T18:06:10.628Z,17.30
2019-02-27T18:08:39.668Z,17.20
2019-02-27T18:11:08.538Z,17.10
2019-02-27T18:13:37.429Z,17.10
2019-02-27T18:16:06.374Z,17.10
2019-02-27T18:18:35.324Z,17.10
2019-02-27T18:21:04.349Z,17.00
2019-02-27T18:23:33.307Z,17.00
2019-02-27T18:26:02.254Z,16.90
2019-02-27T18:28:33.069Z,16.90
2019-02-27T18:31:02.227Z,16.80
2019-02-27T18:33:31.049Z,16.60
2019-02-27T18:36:04.494Z,16.30
2019-02-27T18:38:30.654Z,16.00
2019-02-27T18:40:59.543Z,15.90
2019-02-27T18:43:30.091Z,16.00
2019-02-27T18:45:59.280Z,16.10
2019-02-27T18:48:28.032Z,16.10
2019-02-27T18:50:58.692Z,16.10
2019-02-27T18:53:28.637Z,16.10
2019-02-27T18:55:57.421Z,16.10
2019-02-27T18:58:26.469Z,16.10
2019-02-27T19:00:55.322Z,16.10
2019-02-27T19:03:25.910Z,16.00
2019-02-27T19:05:55.245Z,15.90
2019-02-27T19:08:25.333Z,15.80
2019-02-27T19:10:54.869Z,15.70
2019-02-27T19:13:24.209Z,15.60
2019-02-27T19:15:53.376Z,15.60
2019-02-27T19:18:22.313Z,15.40
2019-02-27T19:20:51.396Z,15.40
2019-02-27T19:23:20.191Z,15.40
2019-02-27T19:25:49.716Z,15.40
2019-02-27T19:28:18.642Z,15.30
2019-02-27T19:30:47.336Z,15.30
2019-02-27T19:33:16.581Z,15.30
2019-02-27T19:35:45.738Z,15.10
2019-02-27T19:38:14.591Z,15.10
2019-02-27T19:40:43.517Z,15.10
2019-02-27T19:43:12.566Z,14.90
2019-02-27T19:45:42.281Z,14.90
2019-02-27T19:48:11.980Z,14.60
2019-02-27T19:50:44.859Z,14.60
2019-02-27T19:53:11.717Z,14.50
2019-02-27T19:55:40.555Z,14.60
2019-02-27T19:58:09.344Z,14.60
2019-02-27T20:00:47.629Z,14.60
2019-02-27T20:03:11.202Z,14.50
2019-02-27T20:05:40.253Z,14.40
2019-02-27T20:08:10.869Z,14.50
2019-02-27T20:10:40.040Z,14.30
2019-02-27T20:13:09.384Z,14.30
2019-02-27T20:15:38.687Z,14.20
2019-02-27T20:18:08.237Z,14.20
2019-02-27T20:20:40.914Z,14.20
2019-02-27T20:23:09.917Z,14.10
2019-02-27T20:25:43.142Z,14.10
2019-02-27T20:28:09.768Z,14.00
2019-02-27T20:30:39.045Z,14.00
2019-02-27T20:33:08.135Z,13.90
2019-02-27T20:35:36.864Z,13.90
2019-02-27T20:38:05.676Z,13.80
2019-02-27T20:40:35.219Z,13.80
2019-02-27T20:43:04.436Z,13.70
2019-02-27T20:45:33.392Z,13.70
2019-02-27T20:48:02.192Z,13.60
2019-02-27T20:50:35.919Z,13.40
2019-02-27T20:53:06.542Z,13.30
2019-02-27T20:55:35.538Z,13.30
2019-02-27T20:58:04.402Z,13.30
2019-02-27T21:00:36.619Z,13.40
2019-02-27T21:03:04.292Z,13.40
2019-02-27T21:05:33.840Z,13.20
2019-02-27T21:08:02.776Z,13.20
2019-02-27T21:10:32.428Z,13.10
2019-02-27T21:13:01.319Z,13.10
2019-02-27T21:15:32.637Z,13.00
2019-02-27T21:18:01.272Z,12.90
2019-02-27T21:20:30.490Z,12.90
2019-02-27T21:23:00.346Z,12.80
2019-02-27T21:25:30.073Z,12.80
2019-02-27T21:27:59.067Z,12.80
2019-02-27T21:30:27.980Z,12.70
2019-02-27T21:32:56.951Z,12.80
2019-02-27T21:35:28.895Z,12.80
2019-02-27T21:37:56.660Z,12.80
2019-02-27T21:40:27.401Z,12.80
2019-02-27T21:42:56.444Z,12.70
2019-02-27T21:45:25.761Z,12.60
2019-02-27T21:47:54.638Z,12.50
2019-02-27T21:50:23.550Z,12.50
2019-02-27T21:52:54.515Z,12.60
2019-02-27T21:55:23.545Z,12.70
2019-02-27T21:57:53.858Z,12.60
2019-02-27T22:00:23.909Z,12.50
2019-02-27T22:02:53.618Z,12.50
2019-02-27T22:05:22.805Z,12.30
2019-02-27T22:07:52.334Z,12.30
2019-02-27T22:10:21.414Z,12.40
2019-02-27T22:12:50.468Z,12.50
2019-02-27T22:15:24.016Z,12.30
2019-02-27T22:17:53.181Z,12.20
2019-02-27T22:20:22.010Z,12.30
2019-02-27T22:22:54.277Z,12.10
2019-02-27T22:25:23.121Z,12.00
2019-02-27T22:27:52.142Z,11.80
2019-02-27T22:30:21.260Z,11.60
2019-02-27T22:32:50.011Z,11.50
2019-02-27T22:35:19.245Z,11.70
2019-02-27T22:37:52.372Z,11.80
2019-02-27T22:40:19.347Z,11.80
2019-02-27T22:42:50.273Z,11.90
2019-02-27T22:45:19.713Z,11.60
2019-02-27T22:47:48.900Z,11.60
2019-02-27T22:50:17.968Z,11.60
2019-02-27T22:52:46.795Z,11.70
2019-02-27T22:55:16.030Z,11.70
2019-02-27T22:57:44.901Z,11.50
2019-02-27T23:00:29.346Z,11.60
2019-02-27T23:02:58.746Z,11.60
2019-02-27T23:05:27.884Z,11.60
2019-02-27T23:07:56.673Z,11.60
2019-02-27T23:10:28.162Z,11.60
2019-02-27T23:12:58.464Z,11.50
2019-02-27T23:15:35.429Z,11.60
2019-02-27T23:18:15.965Z,11.50
2019-02-27T23:21:07.271Z,11.50
2019-02-27T23:23:55.650Z,11.60
2019-02-27T23:26:54.835Z,11.70
2019-02-27T23:29:33.948Z,11.70
2019-02-27T23:32:13.291Z,11.70
2019-02-27T23:34:58.275Z,11.70
2019-02-27T23:37:33.046Z,11.60
2019-02-27T23:40:09.498Z,11.50
2019-02-27T23:43:02.361Z,11.50
2019-02-27T23:45:47.729Z,11.40
2019-02-27T23:48:22.052Z,11.40
2019-02-27T23:51:24.871Z,11.40
2019-02-27T23:54:03.182Z,11.40
2019-02-27T23:56:36.593Z,11.30
2019-02-27T23:59:17.228Z,11.20
